createdAt,value
2022-11-13T00:05:17.868Z,12.30
2022-11-13T00:19:17.985Z,11.50
2022-11-13T00:33:31.937Z,10.60
2022-11-13T00:47:18.035Z,10.30
2022-11-13T01:01:18.007Z,10.00
2022-11-13T01:15:17.953Z,9.50
2022-11-13T01:29:17.968Z,9.00
2022-11-13T01:43:18.098Z,8.90
2022-11-13T01:58:18.113Z,8.70
2022-11-13T02:12:18.091Z,8.40
2022-11-13T02:26:18.100Z,7.90
2022-11-13T02:40:18.112Z,8.00
2022-11-13T02:54:18.370Z,6.80
2022-11-13T03:08:18.438Z,6.00
2022-11-13T03:22:18.465Z,5.80
2022-11-13T03:36:18.481Z,5.30
2022-11-13T03:50:18.493Z,5.50
2022-11-13T04:04:18.497Z,4.80
2022-11-13T04:18:18.653Z,4.50
2022-11-13T04:32:18.639Z,4.30
2022-11-13T04:46:18.603Z,4.30
2022-11-13T05:00:18.615Z,3.90
2022-11-13T05:14:18.634Z,3.60
2022-11-13T05:28:18.628Z,3.40
2022-11-13T05:42:18.657Z,3.30
2022-11-13T05:56:18.794Z,3.60
2022-11-13T06:11:18.809Z,4.70
2022-11-13T06:26:18.802Z,5.20
2022-11-13T06:42:18.875Z,5.20
2022-11-13T06:57:18.894Z,4.80
2022-11-13T07:12:19.121Z,4.80
2022-11-13T07:27:19.082Z,4.60
2022-11-13T07:42:19.099Z,4.60
2022-11-13T07:57:19.136Z,4.30
2022-11-13T08:12:19.158Z,4.25
2022-11-13T08:27:19.261Z,4.20
2022-11-13T08:43:19.309Z,3.80
2022-11-13T08:58:19.282Z,6.20
2022-11-13T09:13:19.266Z,7.70
2022-11-13T09:28:19.341Z,8.10
2022-11-13T09:43:19.356Z,6.80
2022-11-13T09:58:19.354Z,6.70
2022-11-13T10:13:19.405Z,5.85
2022-11-13T10:28:48.653Z,5.90
2022-11-13T10:43:19.405Z,9.90
2022-11-13T10:59:19.427Z,9.80
2022-11-13T11:14:19.424Z,9.40
2022-11-13T11:29:19.415Z,8.90
2022-11-13T11:44:19.428Z,8.50
2022-11-13T11:59:19.488Z,8.15
2022-11-13T12:14:19.492Z,7.15
2022-11-13T12:30:19.504Z,6.70
2022-11-13T12:46:19.552Z,6.40
2022-11-13T13:02:19.661Z,8.20
2022-11-13T13:18:19.665Z,9.20
2022-11-13T13:34:19.679Z,8.70
2022-11-13T13:50:19.737Z,10.80
2022-11-13T14:05:19.708Z,13.80
2022-11-13T14:21:19.743Z,14.20
2022-11-13T14:36:19.741Z,14.60
2022-11-13T14:52:19.786Z,16.80
2022-11-13T15:07:19.814Z,19.60
2022-11-13T15:22:26.957Z,22.70
2022-11-13T15:37:19.781Z,24.30
2022-11-13T15:52:19.783Z,23.80
2022-11-13T16:07:19.890Z,23.50
2022-11-13T16:22:19.831Z,21.80
2022-11-13T16:36:19.842Z,20.70
2022-11-13T16:50:19.834Z,20.70
2022-11-13T17:04:19.837Z,19.20
2022-11-13T17:18:19.864Z,18.80
2022-11-13T17:32:19.836Z,18.30
2022-11-13T17:46:19.854Z,20.40
2022-11-13T18:00:19.856Z,23.40
2022-11-13T18:14:19.875Z,23.10
2022-11-13T18:28:19.900Z,22.70
2022-11-13T18:42:19.872Z,21.20
2022-11-13T18:56:19.879Z,19.90
2022-11-13T19:10:19.881Z,18.80
2022-11-13T19:25:19.936Z,18.10
2022-11-13T19:39:19.935Z,17.60
2022-11-13T19:53:19.951Z,16.80
2022-11-13T20:07:19.955Z,20.20
2022-11-13T20:21:19.940Z,24.80
2022-11-13T20:35:19.948Z,27.20
2022-11-13T20:49:19.937Z,26.50
2022-11-13T21:03:19.973Z,26.50
2022-11-13T21:17:19.969Z,26.00
2022-11-13T21:31:20.009Z,25.00
2022-11-13T21:45:20.005Z,23.80
2022-11-13T21:59:19.996Z,23.00
2022-11-13T22:13:20.007Z,21.30
2022-11-13T22:27:20.025Z,20.25
2022-11-13T22:41:22.794Z,19.20
2022-11-13T22:55:20.023Z,17.90
2022-11-13T23:09:20.018Z,17.30
2022-11-13T23:23:20.067Z,16.20
2022-11-13T23:37:20.036Z,15.30
2022-11-13T23:51:20.028Z,14.60
